sensor_id;sensor_type;location;lat;lon;timestamp;temperature;humidity
15749;DHT22;7976;52.526;13.326;2022-10-31T00:00:57;14.80;99.90
15749;DHT22;7976;52.526;13.326;2022-10-31T00:03:24;14.80;99.90
15749;DHT22;7976;52.526;13.326;2022-10-31T00:05:53;14.80;99.90
15749;DHT22;7976;52.526;13.326;2022-10-31T00:08:20;14.80;99.90
15749;DHT22;7976;52.526;13.326;2022-10-31T00:10:46;14.80;99.90
15749;DHT22;7976;52.526;13.326;2022-10-31T00:13:14;14.80;99.90
15749;DHT22;7976;52.526;13.326;2022-10-31T00:15:41;14.80;99.90
15749;DHT22;7976;52.526;13.326;2022-10-31T00:18:09;14.80;99.90
15749;DHT22;7976;52.526;13.326;2022-10-31T00:20:37;14.70;99.90
15749;DHT22;7976;52.526;13.326;2022-10-31T00:23:06;14.70;99.90
15749;DHT22;7976;52.526;13.326;2022-10-31T00:25:37;14.70;99.90
15749;DHT22;7976;52.526;13.326;2022-10-31T00:28:06;14.70;99.90
15749;DHT22;7976;52.526;13.326;2022-10-31T00:30:35;14.70;99.90
15749;DHT22;7976;52.526;13.326;2022-10-31T00:33:03;14.70;99.90
15749;DHT22;7976;52.526;13.326;2022-10-31T00:35:30;14.70;99.90
15749;DHT22;7976;52.526;13.326;2022-10-31T00:37:57;14.70;99.90
15749;DHT22;7976;52.526;13.326;2022-10-31T00:40:25;14.60;99.90
15749;DHT22;7976;52.526;13.326;2022-10-31T00:42:53;14.60;99.90
15749;DHT22;7976;52.526;13.326;2022-10-31T00:45:19;14.60;99.90
15749;DHT22;7976;52.526;13.326;2022-10-31T00:47:47;14.60;99.90
15749;DHT22;7976;52.526;13.326;2022-10-31T00:50:13;14.60;99.90
15749;DHT22;7976;52.526;13.326;2022-10-31T00:52:40;14.60;99.90
15749;DHT22;7976;52.526;13.326;2022-10-31T00:55:07;14.50;99.90
15749;DHT22;7976;52.526;13.326;2022-10-31T00:57:36;14.50;99.90
15749;DHT22;7976;52.526;13.326;2022-10-31T01:00:04;14.50;99.90
15749;DHT22;7976;52.526;13.326;2022-10-31T01:02:32;14.50;99.90
15749;DHT22;7976;52.526;13.326;2022-10-31T01:04:59;14.50;99.90
15749;DHT22;7976;52.526;13.326;2022-10-31T01:07:26;14.50;99.90
15749;DHT22;7976;52.526;13.326;2022-10-31T01:09:53;14.40;99.90
15749;DHT22;7976;52.526;13.326;2022-10-31T01:12:20;14.40;99.90
15749;DHT22;7976;52.526;13.326;2022-10-31T01:14:48;14.40;99.90
15749;DHT22;7976;52.526;13.326;2022-10-31T01:17:17;14.40;99.90
15749;DHT22;7976;52.526;13.326;2022-10-31T01:19:46;14.40;99.90
15749;DHT22;7976;52.526;13.326;2022-10-31T01:22:12;14.40;99.90
15749;DHT22;7976;52.526;13.326;2022-10-31T01:24:39;14.40;99.90
15749;DHT22;7976;52.526;13.326;2022-10-31T01:27:06;14.40;99.90
15749;DHT22;7976;52.526;13.326;2022-10-31T01:29:33;14.40;99.90
15749;DHT22;7976;52.526;13.326;2022-10-31T01:32:01;14.30;99.90
15749;DHT22;7976;52.526;13.326;2022-10-31T01:34:28;14.40;99.90
15749;DHT22;7976;52.526;13.326;2022-10-31T01:36:55;14.40;99.90
15749;DHT22;7976;52.526;13.326;2022-10-31T01:39:22;14.30;99.90
15749;DHT22;7976;52.526;13.326;2022-10-31T01:41:50;14.40;99.90
15749;DHT22;7976;52.526;13.326;2022-10-31T01:44:54;14.40;99.90
15749;DHT22;7976;52.526;13.326;2022-10-31T01:47:32;14.40;99.90
15749;DHT22;7976;52.526;13.326;2022-10-31T01:50:09;14.30;99.90
15749;DHT22;7976;52.526;13.326;2022-10-31T01:52:43;14.30;99.90
15749;DHT22;7976;52.526;13.326;2022-10-31T01:55:16;14.30;99.90
15749;DHT22;7976;52.526;13.326;2022-10-31T01:57:49;14.30;99.90
15749;DHT22;7976;52.526;13.326;2022-10-31T02:00:21;14.30;99.90
15749;DHT22;7976;52.526;13.326;2022-10-31T02:02:50;14.30;99.90
15749;DHT22;7976;52.526;13.326;2022-10-31T02:05:22;14.30;99.90
15749;DHT22;7976;52.526;13.326;2022-10-31T02:07:57;14.30;99.90
15749;DHT22;7976;52.526;13.326;2022-10-31T02:10:30;14.30;99.90
15749;DHT22;7976;52.526;13.326;2022-10-31T02:13:02;14.30;99.90
15749;DHT22;7976;52.526;13.326;2022-10-31T02:15:36;14.20;99.90
15749;DHT22;7976;52.526;13.326;2022-10-31T02:18:07;14.20;99.90
15749;DHT22;7976;52.526;13.326;2022-10-31T02:20:42;14.30;99.90
15749;DHT22;7976;52.526;13.326;2022-10-31T02:27:13;14.30;99.90
15749;DHT22;7976;52.526;13.326;2022-10-31T02:30:09;14.20;99.90
15749;DHT22;7976;52.526;13.326;2022-10-31T02:33:07;14.20;99.90
15749;DHT22;7976;52.526;13.326;2022-10-31T02:35:50;14.20;99.90
15749;DHT22;7976;52.526;13.326;2022-10-31T02:38:29;14.20;99.90
15749;DHT22;7976;52.526;13.326;2022-10-31T02:41:10;14.20;99.90
15749;DHT22;7976;52.526;13.326;2022-10-31T02:44:00;14.10;99.90
15749;DHT22;7976;52.526;13.326;2022-10-31T02:46:42;14.10;99.90
15749;DHT22;7976;52.526;13.326;2022-10-31T02:49:22;14.10;99.90
15749;DHT22;7976;52.526;13.326;2022-10-31T02:51:52;14.10;99.90
15749;DHT22;7976;52.526;13.326;2022-10-31T02:54:22;14.10;99.90
15749;DHT22;7976;52.526;13.326;2022-10-31T02:56:56;14.00;99.90
15749;DHT22;7976;52.526;13.326;2022-10-31T02:59:27;14.00;99.90
15749;DHT22;7976;52.526;13.326;2022-10-31T03:05:25;14.00;99.90
15749;DHT22;7976;52.526;13.326;2022-10-31T03:08:10;14.00;99.90
15749;DHT22;7976;52.526;13.326;2022-10-31T03:10:49;14.00;99.90
15749;DHT22;7976;52.526;13.326;2022-10-31T03:13:26;14.00;99.90
15749;DHT22;7976;52.526;13.326;2022-10-31T03:16:07;14.00;99.90
15749;DHT22;7976;52.526;13.326;2022-10-31T03:18:40;14.00;99.90
15749;DHT22;7976;52.526;13.326;2022-10-31T03:21:13;14.00;99.90
15749;DHT22;7976;52.526;13.326;2022-10-31T03:23:44;14.00;99.90
15749;DHT22;7976;52.526;13.326;2022-10-31T03:26:20;14.00;99.90
15749;DHT22;7976;52.526;13.326;2022-10-31T03:28:51;14.00;99.90
15749;DHT22;7976;52.526;13.326;2022-10-31T03:31:25;14.00;99.90
15749;DHT22;7976;52.526;13.326;2022-10-31T03:33:58;14.00;99.90
15749;DHT22;7976;52.526;13.326;2022-10-31T03:36:31;14.00;99.90
15749;DHT22;7976;52.526;13.326;2022-10-31T03:39:04;14.00;99.90
15749;DHT22;7976;52.526;13.326;2022-10-31T03:41:40;14.00;99.90
15749;DHT22;7976;52.526;13.326;2022-10-31T03:44:15;14.00;99.90
15749;DHT22;7976;52.526;13.326;2022-10-31T03:46:53;14.00;99.90
15749;DHT22;7976;52.526;13.326;2022-10-31T03:49:21;14.00;99.90
15749;DHT22;7976;52.526;13.326;2022-10-31T03:51:54;14.00;99.90
15749;DHT22;7976;52.526;13.326;2022-10-31T03:54:28;14.00;99.90
15749;DHT22;7976;52.526;13.326;2022-10-31T03:57:07;13.90;99.90
15749;DHT22;7976;52.526;13.326;2022-10-31T03:59:44;14.00;99.90
15749;DHT22;7976;52.526;13.326;2022-10-31T04:02:16;14.00;99.90
15749;DHT22;7976;52.526;13.326;2022-10-31T04:04:47;13.90;99.90
15749;DHT22;7976;52.526;13.326;2022-10-31T04:07:17;13.90;99.90
15749;DHT22;7976;52.526;13.326;2022-10-31T04:09:50;13.90;99.90
15749;DHT22;7976;52.526;13.326;2022-10-31T04:12:20;14.00;99.90
15749;DHT22;7976;52.526;13.326;2022-10-31T04:14:59;14.00;99.90
15749;DHT22;7976;52.526;13.326;2022-10-31T04:17:31;14.00;99.90
15749;DHT22;7976;52.526;13.326;2022-10-31T04:20:00;14.00;99.90
15749;DHT22;7976;52.526;13.326;2022-10-31T04:22:29;13.90;99.90
15749;DHT22;7976;52.526;13.326;2022-10-31T04:24:56;14.00;99.90
15749;DHT22;7976;52.526;13.326;2022-10-31T04:27:23;13.90;99.90
15749;DHT22;7976;52.526;13.326;2022-10-31T04:29:51;13.90;99.90
15749;DHT22;7976;52.526;13.326;2022-10-31T04:32:18;13.90;99.90
15749;DHT22;7976;52.526;13.326;2022-10-31T04:34:45;13.90;99.90
15749;DHT22;7976;52.526;13.326;2022-10-31T04:37:11;13.90;99.90
15749;DHT22;7976;52.526;13.326;2022-10-31T04:39:39;13.90;99.90
15749;DHT22;7976;52.526;13.326;2022-10-31T04:42:41;13.90;99.90
15749;DHT22;7976;52.526;13.326;2022-10-31T04:45:09;13.80;99.90
15749;DHT22;7976;52.526;13.326;2022-10-31T04:47:36;13.80;99.90
15749;DHT22;7976;52.526;13.326;2022-10-31T04:50:05;13.80;99.90
15749;DHT22;7976;52.526;13.326;2022-10-31T04:52:39;13.80;99.90
15749;DHT22;7976;52.526;13.326;2022-10-31T04:55:09;13.80;99.90
15749;DHT22;7976;52.526;13.326;2022-10-31T04:57:55;13.80;99.90
15749;DHT22;7976;52.526;13.326;2022-10-31T05:00:24;13.80;99.90
15749;DHT22;7976;52.526;13.326;2022-10-31T05:02:52;13.70;99.90
15749;DHT22;7976;52.526;13.326;2022-10-31T05:05:22;13.70;99.90
15749;DHT22;7976;52.526;13.326;2022-10-31T05:07:50;13.70;99.90
15749;DHT22;7976;52.526;13.326;2022-10-31T05:10:23;13.70;99.90
15749;DHT22;7976;52.526;13.326;2022-10-31T05:12:53;13.70;99.90
15749;DHT22;7976;52.526;13.326;2022-10-31T05:15:39;13.70;99.90
15749;DHT22;7976;52.526;13.326;2022-10-31T05:18:38;13.70;99.90
15749;DHT22;7976;52.526;13.326;2022-10-31T05:21:23;13.60;99.90
15749;DHT22;7976;52.526;13.326;2022-10-31T05:23:53;13.60;99.90
15749;DHT22;7976;52.526;13.326;2022-10-31T05:26:23;13.60;99.90
15749;DHT22;7976;52.526;13.326;2022-10-31T05:28:52;13.60;99.90
15749;DHT22;7976;52.526;13.326;2022-10-31T05:31:19;13.60;99.90
15749;DHT22;7976;52.526;13.326;2022-10-31T05:33:48;13.60;99.90
15749;DHT22;7976;52.526;13.326;2022-10-31T05:36:50;13.60;99.90
15749;DHT22;7976;52.526;13.326;2022-10-31T05:39:20;13.60;99.90
15749;DHT22;7976;52.526;13.326;2022-10-31T05:41:54;13.60;99.90
15749;DHT22;7976;52.526;13.326;2022-10-31T05:44:25;13.60;99.90
15749;DHT22;7976;52.526;13.326;2022-10-31T05:47:27;13.60;99.90
15749;DHT22;7976;52.526;13.326;2022-10-31T05:50:32;13.60;99.90
15749;DHT22;7976;52.526;13.326;2022-10-31T05:53:08;13.60;99.90
15749;DHT22;7976;52.526;13.326;2022-10-31T05:55:37;13.60;99.90
15749;DHT22;7976;52.526;13.326;2022-10-31T05:58:12;13.60;99.90
15749;DHT22;7976;52.526;13.326;2022-10-31T06:00:43;13.60;99.90
15749;DHT22;7976;52.526;13.326;2022-10-31T06:03:11;13.60;99.90
15749;DHT22;7976;52.526;13.326;2022-10-31T06:05:55;13.60;99.90
15749;DHT22;7976;52.526;13.326;2022-10-31T06:08:25;13.60;99.90
15749;DHT22;7976;52.526;13.326;2022-10-31T06:10:54;13.60;99.90
15749;DHT22;7976;52.526;13.326;2022-10-31T06:13:42;13.60;99.90
15749;DHT22;7976;52.526;13.326;2022-10-31T06:16:17;13.60;99.90
15749;DHT22;7976;52.526;13.326;2022-10-31T06:18:45;13.60;99.90
15749;DHT22;7976;52.526;13.326;2022-10-31T06:21:13;13.60;99.90
15749;DHT22;7976;52.526;13.326;2022-10-31T06:23:40;13.60;99.90
15749;DHT22;7976;52.526;13.326;2022-10-31T06:26:24;13.60;99.90
15749;DHT22;7976;52.526;13.326;2022-10-31T06:28:53;13.70;99.90
15749;DHT22;7976;52.526;13.326;2022-10-31T06:31:36;13.70;99.90
15749;DHT22;7976;52.526;13.326;2022-10-31T06:34:03;13.70;99.90
15749;DHT22;7976;52.526;13.326;2022-10-31T06:36:30;13.70;99.90
15749;DHT22;7976;52.526;13.326;2022-10-31T06:38:57;13.70;99.90
15749;DHT22;7976;52.526;13.326;2022-10-31T06:41:26;13.70;99.90
15749;DHT22;7976;52.526;13.326;2022-10-31T06:43:54;13.70;99.90
15749;DHT22;7976;52.526;13.326;2022-10-31T06:46:56;13.70;99.90
15749;DHT22;7976;52.526;13.326;2022-10-31T06:49:33;13.70;99.90
15749;DHT22;7976;52.526;13.326;2022-10-31T06:52:02;13.70;99.90
15749;DHT22;7976;52.526;13.326;2022-10-31T06:54:29;13.70;99.90
15749;DHT22;7976;52.526;13.326;2022-10-31T06:56:56;13.80;99.90
15749;DHT22;7976;52.526;13.326;2022-10-31T06:59:24;13.80;99.90
15749;DHT22;7976;52.526;13.326;2022-10-31T07:02:11;13.80;99.90
15749;DHT22;7976;52.526;13.326;2022-10-31T07:04:41;13.80;99.90
15749;DHT22;7976;52.526;13.326;2022-10-31T07:07:11;13.80;99.90
15749;DHT22;7976;52.526;13.326;2022-10-31T07:09:38;13.90;99.90
15749;DHT22;7976;52.526;13.326;2022-10-31T07:12:07;13.90;99.90
15749;DHT22;7976;52.526;13.326;2022-10-31T07:14:38;14.00;99.90
15749;DHT22;7976;52.526;13.326;2022-10-31T07:17:06;14.10;99.90
15749;DHT22;7976;52.526;13.326;2022-10-31T07:19:39;14.20;99.90
15749;DHT22;7976;52.526;13.326;2022-10-31T07:22:06;14.30;99.90
15749;DHT22;7976;52.526;13.326;2022-10-31T07:24:34;14.30;99.90
15749;DHT22;7976;52.526;13.326;2022-10-31T07:27:19;14.40;99.90
15749;DHT22;7976;52.526;13.326;2022-10-31T07:29:49;14.50;99.90
15749;DHT22;7976;52.526;13.326;2022-10-31T07:32:16;14.60;99.90
15749;DHT22;7976;52.526;13.326;2022-10-31T07:34:50;14.60;99.90
15749;DHT22;7976;52.526;13.326;2022-10-31T07:37:22;14.60;99.90
15749;DHT22;7976;52.526;13.326;2022-10-31T07:39:50;14.70;99.90
15749;DHT22;7976;52.526;13.326;2022-10-31T07:42:17;14.70;99.90
15749;DHT22;7976;52.526;13.326;2022-10-31T07:44:44;14.70;99.90
15749;DHT22;7976;52.526;13.326;2022-10-31T07:47:37;14.70;99.90
15749;DHT22;7976;52.526;13.326;2022-10-31T07:50:06;14.70;99.90
15749;DHT22;7976;52.526;13.326;2022-10-31T07:52:58;14.70;99.90
15749;DHT22;7976;52.526;13.326;2022-10-31T07:55:49;14.70;99.90
15749;DHT22;7976;52.526;13.326;2022-10-31T07:58:18;14.70;99.90
15749;DHT22;7976;52.526;13.326;2022-10-31T08:00:46;14.70;99.90
15749;DHT22;7976;52.526;13.326;2022-10-31T08:03:19;14.70;99.90
15749;DHT22;7976;52.526;13.326;2022-10-31T08:06:05;14.70;99.90
15749;DHT22;7976;52.526;13.326;2022-10-31T08:08:52;14.70;99.90
15749;DHT22;7976;52.526;13.326;2022-10-31T08:11:19;14.60;99.90
15749;DHT22;7976;52.526;13.326;2022-10-31T08:13:47;14.70;99.90
15749;DHT22;7976;52.526;13.326;2022-10-31T08:16:14;14.70;99.90
15749;DHT22;7976;52.526;13.326;2022-10-31T08:18:54;14.70;99.90
15749;DHT22;7976;52.526;13.326;2022-10-31T08:21:22;14.60;99.90
15749;DHT22;7976;52.526;13.326;2022-10-31T08:23:49;14.60;99.90
15749;DHT22;7976;52.526;13.326;2022-10-31T08:26:18;14.60;99.90
15749;DHT22;7976;52.526;13.326;2022-10-31T08:28:45;14.60;99.90
15749;DHT22;7976;52.526;13.326;2022-10-31T08:31:13;14.60;99.90
15749;DHT22;7976;52.526;13.326;2022-10-31T08:33:40;14.60;99.90
15749;DHT22;7976;52.526;13.326;2022-10-31T08:36:27;14.60;99.90
15749;DHT22;7976;52.526;13.326;2022-10-31T08:39:14;14.60;99.90
15749;DHT22;7976;52.526;13.326;2022-10-31T08:41:41;14.60;99.90
15749;DHT22;7976;52.526;13.326;2022-10-31T08:44:11;14.60;99.90
15749;DHT22;7976;52.526;13.326;2022-10-31T08:46:38;14.60;99.90
15749;DHT22;7976;52.526;13.326;2022-10-31T08:49:05;14.60;99.90
15749;DHT22;7976;52.526;13.326;2022-10-31T08:51:33;14.60;99.90
15749;DHT22;7976;52.526;13.326;2022-10-31T08:54:00;14.70;99.90
15749;DHT22;7976;52.526;13.326;2022-10-31T08:56:56;14.70;99.90
15749;DHT22;7976;52.526;13.326;2022-10-31T08:59:40;14.70;99.90
15749;DHT22;7976;52.526;13.326;2022-10-31T09:02:19;14.80;99.90
15749;DHT22;7976;52.526;13.326;2022-10-31T09:04:48;14.80;99.90
15749;DHT22;7976;52.526;13.326;2022-10-31T09:07:18;14.80;99.90
15749;DHT22;7976;52.526;13.326;2022-10-31T09:09:45;14.90;99.90
15749;DHT22;7976;52.526;13.326;2022-10-31T09:12:12;14.90;99.90
15749;DHT22;7976;52.526;13.326;2022-10-31T09:15:06;14.80;99.90
15749;DHT22;7976;52.526;13.326;2022-10-31T09:17:46;14.90;99.90
15749;DHT22;7976;52.526;13.326;2022-10-31T09:20:20;14.90;99.90
15749;DHT22;7976;52.526;13.326;2022-10-31T09:22:55;14.90;99.90
15749;DHT22;7976;52.526;13.326;2022-10-31T09:25:24;14.90;99.90
15749;DHT22;7976;52.526;13.326;2022-10-31T09:28:13;14.90;99.90
15749;DHT22;7976;52.526;13.326;2022-10-31T09:30:46;15.00;99.90
15749;DHT22;7976;52.526;13.326;2022-10-31T09:33:22;15.00;99.90
15749;DHT22;7976;52.526;13.326;2022-10-31T09:36:07;15.00;99.90
15749;DHT22;7976;52.526;13.326;2022-10-31T09:38:37;15.00;99.90
15749;DHT22;7976;52.526;13.326;2022-10-31T09:41:12;15.10;99.90
15749;DHT22;7976;52.526;13.326;2022-10-31T09:43:59;15.10;99.90
15749;DHT22;7976;52.526;13.326;2022-10-31T09:46:39;15.10;99.90
15749;DHT22;7976;52.526;13.326;2022-10-31T09:49:30;15.10;99.90
15749;DHT22;7976;52.526;13.326;2022-10-31T09:52:12;15.20;99.90
15749;DHT22;7976;52.526;13.326;2022-10-31T09:54:51;15.40;99.90
15749;DHT22;7976;52.526;13.326;2022-10-31T09:57:25;15.60;99.90
15749;DHT22;7976;52.526;13.326;2022-10-31T09:59:56;15.70;99.90
15749;DHT22;7976;52.526;13.326;2022-10-31T10:02:28;15.80;99.90
15749;DHT22;7976;52.526;13.326;2022-10-31T10:05:00;15.90;99.90
15749;DHT22;7976;52.526;13.326;2022-10-31T10:07:44;16.00;99.90
15749;DHT22;7976;52.526;13.326;2022-10-31T10:10:51;16.30;99.90
15749;DHT22;7976;52.526;13.326;2022-10-31T10:13:55;16.50;99.90
15749;DHT22;7976;52.526;13.326;2022-10-31T10:16:40;16.60;99.90
15749;DHT22;7976;52.526;13.326;2022-10-31T10:19:31;16.60;99.90
15749;DHT22;7976;52.526;13.326;2022-10-31T10:22:14;16.50;99.90
15749;DHT22;7976;52.526;13.326;2022-10-31T10:24:59;16.50;99.90
15749;DHT22;7976;52.526;13.326;2022-10-31T10:27:46;16.40;99.90
15749;DHT22;7976;52.526;13.326;2022-10-31T10:30:20;16.40;99.90
15749;DHT22;7976;52.526;13.326;2022-10-31T10:32:50;16.40;99.90
15749;DHT22;7976;52.526;13.326;2022-10-31T10:35:24;16.40;99.90
15749;DHT22;7976;52.526;13.326;2022-10-31T10:37:58;16.40;99.90
15749;DHT22;7976;52.526;13.326;2022-10-31T10:40:28;16.40;99.90
15749;DHT22;7976;52.526;13.326;2022-10-31T10:43:10;16.40;99.90
15749;DHT22;7976;52.526;13.326;2022-10-31T10:45:49;16.40;99.90
15749;DHT22;7976;52.526;13.326;2022-10-31T10:48:42;16.40;99.90
15749;DHT22;7976;52.526;13.326;2022-10-31T10:51:23;16.40;99.90
15749;DHT22;7976;52.526;13.326;2022-10-31T10:54:06;16.50;99.90
15749;DHT22;7976;52.526;13.326;2022-10-31T10:56:56;16.50;99.90
15749;DHT22;7976;52.526;13.326;2022-10-31T10:59:32;16.50;99.90
15749;DHT22;7976;52.526;13.326;2022-10-31T11:02:00;16.60;99.90
15749;DHT22;7976;52.526;13.326;2022-10-31T11:04:32;16.60;99.90
15749;DHT22;7976;52.526;13.326;2022-10-31T11:07:03;16.60;99.90
15749;DHT22;7976;52.526;13.326;2022-10-31T11:09:33;16.70;99.90
15749;DHT22;7976;52.526;13.326;2022-10-31T11:12:08;16.70;99.90
15749;DHT22;7976;52.526;13.326;2022-10-31T11:14:45;16.70;99.90
15749;DHT22;7976;52.526;13.326;2022-10-31T11:17:27;16.70;99.90
15749;DHT22;7976;52.526;13.326;2022-10-31T11:20:29;16.80;99.90
15749;DHT22;7976;52.526;13.326;2022-10-31T11:23:04;16.80;99.90
15749;DHT22;7976;52.526;13.326;2022-10-31T11:25:48;16.90;99.90
15749;DHT22;7976;52.526;13.326;2022-10-31T11:28:17;16.90;99.90
15749;DHT22;7976;52.526;13.326;2022-10-31T11:30:46;16.90;99.90
15749;DHT22;7976;52.526;13.326;2022-10-31T11:33:23;16.90;99.90
15749;DHT22;7976;52.526;13.326;2022-10-31T11:35:55;17.00;99.90
15749;DHT22;7976;52.526;13.326;2022-10-31T11:38:26;16.90;99.90
15749;DHT22;7976;52.526;13.326;2022-10-31T11:41:03;17.00;99.90
15749;DHT22;7976;52.526;13.326;2022-10-31T11:43:36;17.00;99.90
15749;DHT22;7976;52.526;13.326;2022-10-31T11:46:17;17.00;99.90
15749;DHT22;7976;52.526;13.326;2022-10-31T11:48:48;17.00;99.90
15749;DHT22;7976;52.526;13.326;2022-10-31T11:51:22;17.00;99.90
15749;DHT22;7976;52.526;13.326;2022-10-31T11:53:55;17.00;99.90
15749;DHT22;7976;52.526;13.326;2022-10-31T11:56:24;17.10;99.90
15749;DHT22;7976;52.526;13.326;2022-10-31T11:58:59;17.10;99.90
15749;DHT22;7976;52.526;13.326;2022-10-31T12:01:31;17.10;99.90
15749;DHT22;7976;52.526;13.326;2022-10-31T12:04:04;17.10;99.90
15749;DHT22;7976;52.526;13.326;2022-10-31T12:06:36;17.20;99.90
15749;DHT22;7976;52.526;13.326;2022-10-31T12:09:13;17.20;99.90
15749;DHT22;7976;52.526;13.326;2022-10-31T12:11:56;17.20;99.90
15749;DHT22;7976;52.526;13.326;2022-10-31T12:14:36;17.20;99.90
15749;DHT22;7976;52.526;13.326;2022-10-31T12:17:14;17.20;99.90
15749;DHT22;7976;52.526;13.326;2022-10-31T12:19:52;17.20;99.90
15749;DHT22;7976;52.526;13.326;2022-10-31T12:22:36;17.20;99.90
15749;DHT22;7976;52.526;13.326;2022-10-31T12:25:25;17.30;99.90
15749;DHT22;7976;52.526;13.326;2022-10-31T12:28:14;17.30;99.90
15749;DHT22;7976;52.526;13.326;2022-10-31T12:31:04;17.30;99.90
15749;DHT22;7976;52.526;13.326;2022-10-31T12:33:54;17.30;99.90
15749;DHT22;7976;52.526;13.326;2022-10-31T12:36:45;17.30;99.90
15749;DHT22;7976;52.526;13.326;2022-10-31T12:39:25;17.30;99.90
15749;DHT22;7976;52.526;13.326;2022-10-31T12:42:07;17.30;99.90
15749;DHT22;7976;52.526;13.326;2022-10-31T12:44:55;17.30;99.90
15749;DHT22;7976;52.526;13.326;2022-10-31T12:47:52;17.30;99.90
15749;DHT22;7976;52.526;13.326;2022-10-31T12:50:41;17.30;99.90
15749;DHT22;7976;52.526;13.326;2022-10-31T12:53:27;17.30;99.90
15749;DHT22;7976;52.526;13.326;2022-10-31T12:56:15;17.30;99.90
15749;DHT22;7976;52.526;13.326;2022-10-31T12:58:56;17.40;99.90
15749;DHT22;7976;52.526;13.326;2022-10-31T13:01:32;17.40;99.90
15749;DHT22;7976;52.526;13.326;2022-10-31T13:04:04;17.40;99.90
15749;DHT22;7976;52.526;13.326;2022-10-31T13:06:42;17.40;99.90
15749;DHT22;7976;52.526;13.326;2022-10-31T13:09:18;17.40;99.90
15749;DHT22;7976;52.526;13.326;2022-10-31T13:11:55;17.50;99.90
15749;DHT22;7976;52.526;13.326;2022-10-31T13:14:29;17.50;99.90
15749;DHT22;7976;52.526;13.326;2022-10-31T13:17:00;17.50;99.90
15749;DHT22;7976;52.526;13.326;2022-10-31T13:19:31;17.50;99.90
15749;DHT22;7976;52.526;13.326;2022-10-31T13:22:07;17.60;99.90
15749;DHT22;7976;52.526;13.326;2022-10-31T13:24:41;17.50;99.90
15749;DHT22;7976;52.526;13.326;2022-10-31T13:27:18;17.60;99.90
15749;DHT22;7976;52.526;13.326;2022-10-31T13:29:56;17.50;99.90
15749;DHT22;7976;52.526;13.326;2022-10-31T13:32:30;17.50;99.90
15749;DHT22;7976;52.526;13.326;2022-10-31T13:35:12;17.50;99.90
15749;DHT22;7976;52.526;13.326;2022-10-31T13:37:47;17.50;99.90
15749;DHT22;7976;52.526;13.326;2022-10-31T13:40:32;17.50;99.90
15749;DHT22;7976;52.526;13.326;2022-10-31T13:43:11;17.40;99.90
15749;DHT22;7976;52.526;13.326;2022-10-31T13:45:52;17.40;99.90
15749;DHT22;7976;52.526;13.326;2022-10-31T13:48:36;17.40;99.90
15749;DHT22;7976;52.526;13.326;2022-10-31T13:51:08;17.40;99.90
15749;DHT22;7976;52.526;13.326;2022-10-31T13:53:40;17.40;99.90
15749;DHT22;7976;52.526;13.326;2022-10-31T13:56:18;17.40;99.90
15749;DHT22;7976;52.526;13.326;2022-10-31T13:59:19;17.30;99.90
15749;DHT22;7976;52.526;13.326;2022-10-31T14:01:51;17.30;99.90
15749;DHT22;7976;52.526;13.326;2022-10-31T14:04:22;17.20;99.90
15749;DHT22;7976;52.526;13.326;2022-10-31T14:07:04;17.20;99.90
15749;DHT22;7976;52.526;13.326;2022-10-31T14:09:34;17.10;99.90
15749;DHT22;7976;52.526;13.326;2022-10-31T14:12:06;17.00;99.90
15749;DHT22;7976;52.526;13.326;2022-10-31T14:14:44;17.00;99.90
15749;DHT22;7976;52.526;13.326;2022-10-31T14:17:21;16.90;99.90
15749;DHT22;7976;52.526;13.326;2022-10-31T14:19:58;16.90;99.90
15749;DHT22;7976;52.526;13.326;2022-10-31T14:22:30;16.80;99.90
15749;DHT22;7976;52.526;13.326;2022-10-31T14:24:58;16.70;99.90
15749;DHT22;7976;52.526;13.326;2022-10-31T14:27:34;16.70;99.90
15749;DHT22;7976;52.526;13.326;2022-10-31T14:30:17;16.60;99.90
15749;DHT22;7976;52.526;13.326;2022-10-31T14:32:50;16.60;99.90
15749;DHT22;7976;52.526;13.326;2022-10-31T14:35:21;16.50;99.90
15749;DHT22;7976;52.526;13.326;2022-10-31T14:38:03;16.40;99.90
15749;DHT22;7976;52.526;13.326;2022-10-31T14:40:55;16.30;99.90
15749;DHT22;7976;52.526;13.326;2022-10-31T14:43:50;16.20;99.90
15749;DHT22;7976;52.526;13.326;2022-10-31T14:46:40;16.20;99.90
15749;DHT22;7976;52.526;13.326;2022-10-31T14:49:34;16.10;99.90
15749;DHT22;7976;52.526;13.326;2022-10-31T14:52:14;16.00;99.90
15749;DHT22;7976;52.526;13.326;2022-10-31T14:54:48;15.90;99.90
15749;DHT22;7976;52.526;13.326;2022-10-31T14:57:21;15.90;99.90
15749;DHT22;7976;52.526;13.326;2022-10-31T14:59:55;15.80;99.90
15749;DHT22;7976;52.526;13.326;2022-10-31T15:02:30;15.80;99.90
15749;DHT22;7976;52.526;13.326;2022-10-31T15:05:07;15.70;99.90
15749;DHT22;7976;52.526;13.326;2022-10-31T15:07:35;15.60;99.90
15749;DHT22;7976;52.526;13.326;2022-10-31T15:10:19;15.60;99.90
15749;DHT22;7976;52.526;13.326;2022-10-31T15:12:48;15.60;99.90
15749;DHT22;7976;52.526;13.326;2022-10-31T15:15:19;15.60;99.90
15749;DHT22;7976;52.526;13.326;2022-10-31T15:17:51;15.50;99.90
15749;DHT22;7976;52.526;13.326;2022-10-31T15:20:22;15.50;99.90
15749;DHT22;7976;52.526;13.326;2022-10-31T15:22:54;15.40;99.90
15749;DHT22;7976;52.526;13.326;2022-10-31T15:25:24;15.40;99.90
15749;DHT22;7976;52.526;13.326;2022-10-31T15:27:54;15.30;99.90
15749;DHT22;7976;52.526;13.326;2022-10-31T15:30:23;15.30;99.90
15749;DHT22;7976;52.526;13.326;2022-10-31T15:32:53;15.20;99.90
15749;DHT22;7976;52.526;13.326;2022-10-31T15:35:22;15.20;99.90
15749;DHT22;7976;52.526;13.326;2022-10-31T15:37:52;15.20;99.90
15749;DHT22;7976;52.526;13.326;2022-10-31T15:40:21;15.20;99.90
15749;DHT22;7976;52.526;13.326;2022-10-31T15:42:51;15.10;99.90
15749;DHT22;7976;52.526;13.326;2022-10-31T15:45:22;15.10;99.90
15749;DHT22;7976;52.526;13.326;2022-10-31T15:47:55;15.10;99.90
15749;DHT22;7976;52.526;13.326;2022-10-31T15:50:28;15.00;99.90
15749;DHT22;7976;52.526;13.326;2022-10-31T15:52:58;15.00;99.90
15749;DHT22;7976;52.526;13.326;2022-10-31T15:55:27;15.00;99.90
15749;DHT22;7976;52.526;13.326;2022-10-31T15:57:59;15.00;99.90
15749;DHT22;7976;52.526;13.326;2022-10-31T16:00:31;15.00;99.90
15749;DHT22;7976;52.526;13.326;2022-10-31T16:03:19;15.00;99.90
15749;DHT22;7976;52.526;13.326;2022-10-31T16:05:51;15.00;99.90
15749;DHT22;7976;52.526;13.326;2022-10-31T16:08:32;15.00;99.90
15749;DHT22;7976;52.526;13.326;2022-10-31T16:11:14;15.00;99.90
15749;DHT22;7976;52.526;13.326;2022-10-31T16:13:58;14.90;99.90
15749;DHT22;7976;52.526;13.326;2022-10-31T16:16:29;14.90;99.90
15749;DHT22;7976;52.526;13.326;2022-10-31T16:19:01;14.80;99.90
15749;DHT22;7976;52.526;13.326;2022-10-31T16:21:33;14.80;99.90
15749;DHT22;7976;52.526;13.326;2022-10-31T16:24:05;14.80;99.90
15749;DHT22;7976;52.526;13.326;2022-10-31T16:26:47;14.80;99.90